createdAt,value
2022-12-18T00:03:20.569Z,10.65
2022-12-18T00:08:24.509Z,11.32
2022-12-18T00:13:28.098Z,11.40
2022-12-18T00:18:33.261Z,11.88
2022-12-18T00:23:39.479Z,12.23
2022-12-18T00:28:43.683Z,11.57
2022-12-18T00:33:49.682Z,12.50
2022-12-18T00:39:01.218Z,11.93
2022-12-18T00:44:07.737Z,11.38
2022-12-18T00:49:16.636Z,11.70
2022-12-18T00:54:20.445Z,11.30
2022-12-18T00:59:23.995Z,11.43
2022-12-18T01:04:29.796Z,11.05
2022-12-18T01:09:33.352Z,10.05
2022-12-18T01:14:37.061Z,10.23
2022-12-18T01:19:42.898Z,10.10
2022-12-18T01:24:47.613Z,9.88
2022-12-18T01:29:52.241Z,8.77
2022-12-18T01:34:58.329Z,9.15
2022-12-18T01:40:03.596Z,8.70
2022-12-18T01:45:26.248Z,8.30
2022-12-18T01:50:38.564Z,8.35
2022-12-18T01:55:51.130Z,8.07
2022-12-18T02:00:54.758Z,8.20
2022-12-18T02:06:09.882Z,7.72
2022-12-18T02:11:30.118Z,7.77
2022-12-18T02:16:46.133Z,7.03
2022-12-18T02:22:00.392Z,6.93
2022-12-18T02:27:09.716Z,6.57
2022-12-18T02:32:20.422Z,6.85
2022-12-18T02:37:25.767Z,6.72
2022-12-18T02:42:32.143Z,6.63
2022-12-18T02:47:43.050Z,6.80
2022-12-18T02:53:04.225Z,6.38
2022-12-18T02:58:18.904Z,6.18
2022-12-18T03:03:33.687Z,6.20
2022-12-18T03:08:43.560Z,5.97
2022-12-18T03:13:54.849Z,5.82
2022-12-18T03:19:03.805Z,5.50
2022-12-18T03:24:12.179Z,5.57
2022-12-18T03:29:25.212Z,5.13
2022-12-18T03:34:34.961Z,5.18
2022-12-18T03:39:41.000Z,4.90
2022-12-18T03:44:58.675Z,4.90
2022-12-18T03:50:15.723Z,4.90
2022-12-18T03:55:25.461Z,5.13
2022-12-18T04:00:37.997Z,5.03
2022-12-18T04:05:48.471Z,4.80
2022-12-18T04:10:54.760Z,4.57
2022-12-18T04:16:00.535Z,4.70
2022-12-18T04:21:05.989Z,4.57
2022-12-18T04:26:11.096Z,4.10
2022-12-18T04:31:39.144Z,4.40
2022-12-18T04:36:42.945Z,3.83
2022-12-18T04:41:46.907Z,3.90
2022-12-18T04:46:52.733Z,3.90
2022-12-18T04:51:56.622Z,4.00
2022-12-18T04:57:00.274Z,3.78
2022-12-18T05:02:05.554Z,3.72
2022-12-18T05:07:09.245Z,3.58
2022-12-18T05:12:12.942Z,3.40
2022-12-18T05:17:17.989Z,3.53
2022-12-18T05:22:21.720Z,3.80
2022-12-18T05:27:25.316Z,3.40
2022-12-18T05:32:30.334Z,3.47
2022-12-18T05:37:36.940Z,3.42
2022-12-18T05:42:44.853Z,3.25
2022-12-18T05:47:49.903Z,3.05
2022-12-18T05:52:53.466Z,3.08
2022-12-18T05:57:57.112Z,3.08
2022-12-18T06:03:02.358Z,3.10
2022-12-18T06:08:07.152Z,3.10
2022-12-18T06:13:11.041Z,3.50
2022-12-18T06:18:16.018Z,3.00
2022-12-18T06:23:19.651Z,2.83
2022-12-18T06:28:23.657Z,2.90
2022-12-18T06:33:30.786Z,2.90
2022-12-18T06:38:35.124Z,2.73
2022-12-18T06:43:39.194Z,2.85
2022-12-18T06:48:44.602Z,2.85
2022-12-18T06:53:48.260Z,2.53
2022-12-18T06:58:52.902Z,2.72
2022-12-18T07:03:59.790Z,2.63
2022-12-18T07:09:03.475Z,2.80
2022-12-18T07:14:07.126Z,2.40
2022-12-18T07:19:12.348Z,2.60
2022-12-18T07:24:16.173Z,2.90
2022-12-18T07:29:19.791Z,2.55
2022-12-18T07:34:24.875Z,2.63
2022-12-18T07:39:28.698Z,2.60
2022-12-18T07:44:32.234Z,2.50
2022-12-18T07:49:37.502Z,2.45
2022-12-18T07:54:41.340Z,2.72
2022-12-18T07:59:45.020Z,2.50
2022-12-18T08:04:50.037Z,2.50
2022-12-18T08:09:53.588Z,2.45
2022-12-18T08:14:57.241Z,2.50
2022-12-18T08:20:02.258Z,2.45
2022-12-18T08:25:08.267Z,2.30
2022-12-18T08:30:14.457Z,2.40
2022-12-18T08:35:19.657Z,2.40
2022-12-18T08:40:23.319Z,2.30
2022-12-18T08:45:27.357Z,2.20
2022-12-18T08:50:32.330Z,2.25
2022-12-18T08:55:35.972Z,2.10
2022-12-18T09:00:39.569Z,2.20
2022-12-18T09:05:45.134Z,2.10
2022-12-18T09:10:51.518Z,2.42
2022-12-18T09:15:57.437Z,4.40
2022-12-18T09:21:02.497Z,5.93
2022-12-18T09:26:06.697Z,6.22
2022-12-18T09:31:11.745Z,6.65
2022-12-18T09:36:21.840Z,6.60
2022-12-18T09:41:44.449Z,6.72
2022-12-18T09:46:56.934Z,6.30
2022-12-18T09:52:07.501Z,5.75
2022-12-18T09:57:17.276Z,5.68
2022-12-18T10:02:24.316Z,5.95
2022-12-18T10:07:43.963Z,6.20
2022-12-18T10:13:04.326Z,6.18
2022-12-18T10:18:27.842Z,6.10
2022-12-18T10:23:46.536Z,5.72
2022-12-18T10:28:53.807Z,5.65
2022-12-18T10:33:57.555Z,5.50
2022-12-18T10:39:19.451Z,5.30
2022-12-18T10:44:26.837Z,5.10
2022-12-18T10:49:34.536Z,5.10
2022-12-18T10:54:40.510Z,4.82
2022-12-18T10:59:57.155Z,4.85
2022-12-18T11:05:01.328Z,4.75
2022-12-18T11:10:17.378Z,4.35
2022-12-18T11:15:28.888Z,4.70
2022-12-18T11:20:37.573Z,5.22
2022-12-18T11:25:56.346Z,4.90
2022-12-18T11:31:23.345Z,4.60
2022-12-18T11:36:34.454Z,5.10
2022-12-18T11:42:18.608Z,4.97
2022-12-18T11:47:39.243Z,4.18
2022-12-18T11:52:43.735Z,4.25
2022-12-18T11:58:02.436Z,4.35
2022-12-18T12:03:27.982Z,4.30
2022-12-18T12:08:47.055Z,4.15
2022-12-18T12:14:10.389Z,4.05
2022-12-18T12:19:37.624Z,4.20
2022-12-18T12:25:01.798Z,4.67
2022-12-18T12:30:11.955Z,4.40
2022-12-18T12:35:47.266Z,4.10
2022-12-18T12:41:03.115Z,3.95
2022-12-18T12:46:12.425Z,4.25
2022-12-18T12:51:23.908Z,3.97
2022-12-18T12:56:35.131Z,4.00
2022-12-18T13:01:54.216Z,4.35
2022-12-18T13:07:12.473Z,3.83
2022-12-18T13:12:36.226Z,4.13
2022-12-18T13:17:41.677Z,4.07
2022-12-18T13:22:48.717Z,4.30
2022-12-18T13:28:09.598Z,4.90
2022-12-18T13:39:36.703Z,6.10
2022-12-18T13:44:43.215Z,6.45
2022-12-18T13:49:49.664Z,7.30
2022-12-18T13:54:57.547Z,7.07
2022-12-18T14:00:26.871Z,9.32
2022-12-18T14:05:35.081Z,9.23
2022-12-18T14:10:48.862Z,9.13
2022-12-18T14:15:53.828Z,8.55
2022-12-18T14:21:02.932Z,8.02
2022-12-18T14:26:26.447Z,7.57
2022-12-18T14:31:33.221Z,6.93
2022-12-18T14:36:40.968Z,6.82
2022-12-18T14:41:44.614Z,6.75
2022-12-18T14:46:49.680Z,6.90
2022-12-18T14:51:57.913Z,6.68
2022-12-18T14:57:05.782Z,6.43
2022-12-18T15:02:21.028Z,6.00
2022-12-18T15:07:26.724Z,5.72
2022-12-18T15:12:37.775Z,5.30
2022-12-18T15:17:41.439Z,5.35
2022-12-18T15:22:50.149Z,5.45
2022-12-18T15:27:53.864Z,5.22
2022-12-18T15:33:26.693Z,4.93
2022-12-18T15:38:32.371Z,5.20
2022-12-18T15:43:36.054Z,4.72
2022-12-18T15:48:43.885Z,4.93
2022-12-18T15:53:49.940Z,4.90
2022-12-18T15:58:53.532Z,4.70
2022-12-18T16:03:58.044Z,5.10
2022-12-18T16:09:03.055Z,4.45
2022-12-18T16:14:15.224Z,4.80
2022-12-18T16:19:22.176Z,4.88
2022-12-18T16:24:30.872Z,4.60
2022-12-18T16:29:34.549Z,4.60
2022-12-18T16:34:38.539Z,4.10
2022-12-18T16:39:44.627Z,4.18
2022-12-18T16:44:50.469Z,4.55
2022-12-18T16:49:54.257Z,4.13
2022-12-18T16:54:59.327Z,4.53
2022-12-18T17:00:05.446Z,4.15
2022-12-18T17:05:10.213Z,3.85
2022-12-18T17:10:17.103Z,3.70
2022-12-18T17:15:20.768Z,4.03
2022-12-18T17:20:24.646Z,3.92
2022-12-18T17:25:30.330Z,4.10
2022-12-18T17:30:33.915Z,4.07
2022-12-18T17:35:38.036Z,3.90
2022-12-18T17:40:46.462Z,3.60
2022-12-18T17:45:50.234Z,3.80
2022-12-18T17:50:55.338Z,3.40
2022-12-18T17:56:02.056Z,3.60
2022-12-18T18:01:07.766Z,3.70
2022-12-18T18:06:12.125Z,3.63
2022-12-18T18:11:39.061Z,3.80
2022-12-18T18:16:46.237Z,3.42
2022-12-18T18:21:53.247Z,3.73
2022-12-18T18:27:00.032Z,3.30
2022-12-18T18:32:06.567Z,2.95
2022-12-18T18:37:12.190Z,3.33
2022-12-18T18:42:17.257Z,3.28
2022-12-18T18:47:21.052Z,2.90
2022-12-18T18:52:24.617Z,3.03
2022-12-18T18:57:30.608Z,3.08
2022-12-18T19:02:34.759Z,2.85
2022-12-18T19:07:38.437Z,2.88
2022-12-18T19:13:00.808Z,3.13
2022-12-18T19:18:05.203Z,2.97
2022-12-18T19:23:08.949Z,3.08
2022-12-18T19:28:21.554Z,3.10
2022-12-18T19:33:42.455Z,3.10
2022-12-18T19:38:47.523Z,3.20
2022-12-18T19:43:54.009Z,2.95
2022-12-18T19:48:57.789Z,2.90
2022-12-18T19:54:03.500Z,3.08
2022-12-18T19:59:08.627Z,3.00
2022-12-18T20:04:12.366Z,2.97
2022-12-18T20:09:16.535Z,3.13
2022-12-18T20:14:23.537Z,3.50
2022-12-18T20:19:28.866Z,3.30
2022-12-18T20:24:32.953Z,3.95
2022-12-18T20:29:37.930Z,3.20
2022-12-18T20:34:41.709Z,3.42
2022-12-18T20:39:45.538Z,3.20
2022-12-18T20:44:51.500Z,2.88
2022-12-18T20:49:56.361Z,3.40
2022-12-18T20:55:00.195Z,3.30
2022-12-18T21:00:08.584Z,3.15
2022-12-18T21:05:13.462Z,3.15
2022-12-18T21:10:17.179Z,3.20
2022-12-18T21:15:28.359Z,3.33
2022-12-18T21:20:32.493Z,3.17
2022-12-18T21:25:36.436Z,3.10
2022-12-18T21:30:41.529Z,3.10
2022-12-18T21:35:45.212Z,3.20
2022-12-18T21:40:48.911Z,3.50
2022-12-18T21:45:54.189Z,3.80
2022-12-18T21:50:59.381Z,3.88
2022-12-18T21:56:03.229Z,4.15
2022-12-18T22:01:08.364Z,4.13
2022-12-18T22:06:12.271Z,4.03
2022-12-18T22:11:15.932Z,4.40
2022-12-18T22:16:22.935Z,4.40
2022-12-18T22:21:29.930Z,4.60
2022-12-18T22:26:40.138Z,4.73
2022-12-18T22:31:45.661Z,4.45
2022-12-18T22:36:50.347Z,4.60
2022-12-18T22:41:54.922Z,4.32
2022-12-18T22:47:06.795Z,4.47
2022-12-18T22:52:11.805Z,4.40
2022-12-18T22:57:16.854Z,4.10
2022-12-18T23:02:22.110Z,4.25
2022-12-18T23:07:25.994Z,4.25
2022-12-18T23:12:29.710Z,5.05
2022-12-18T23:17:35.185Z,4.85
2022-12-18T23:22:38.714Z,4.80
2022-12-18T23:27:42.451Z,4.88
2022-12-18T23:32:47.505Z,5.10
2022-12-18T23:37:59.364Z,5.22
2022-12-18T23:43:03.559Z,5.05
2022-12-18T23:48:08.563Z,5.20
2022-12-18T23:53:12.931Z,5.18
2022-12-18T23:58:20.441Z,5.55
